Time;durP1;ratioP1;P1;durP2;ratioP2;P2;SDS_P1;SDS_P2;PMS_P1;PMS_P2;Temp;Humidity;BMP_temperature;BMP_pressure;BME280_temperature;BME280_humidity;BME280_pressure;Samples;Min_cycle;Max_cycle;Signal;HPM_P1;HPM_P2
2022/05/23 00:01:44;;;;;;;6.97;3.20;;;;;;;9.23;39.61;98261.22;5026224;28;19913;-80
2022/05/23 00:04:10;;;;;;;;;;;;;;;9.36;38.95;98263.50;4999251;28;20037;-79
2022/05/23 00:06:35;;;;;;;7.10;3.50;;;;;;;9.04;39.76;98243.50;5029387;28;19913;-80
2022/05/23 00:09:01;;;;;;;6.53;3.13;;;;;;;9.04;40.61;98269.38;5014014;28;20034;-80
2022/05/23 00:11:27;;;;;;;;;;;;;;;9.27;39.53;98273.22;4986622;28;20517;-79
2022/05/23 00:13:52;;;;;;;5.55;3.15;;;;;;;9.02;40.37;98258.19;5021042;28;19921;-80
2022/05/23 00:16:26;;;;;;;4.80;2.83;;;;;;;8.98;40.57;98274.66;5007861;28;20034;-80
2022/05/23 00:18:51;;;;;;;6.07;3.25;;;;;;;8.90;40.90;98266.19;5009023;28;20068;-80
2022/05/23 00:21:17;;;;;;;;;;;;;;;9.07;40.06;98277.06;4997267;28;20037;-80
2022/05/23 00:23:43;;;;;;;5.68;2.97;;;;;;;9.00;40.29;98259.09;5009994;28;19924;-79
2022/05/23 00:26:10;;;;;;;;;;;;;;;8.94;40.36;98278.19;5005020;28;20026;-79
2022/05/23 00:28:38;;;;;;;6.32;3.58;;;;;;;8.73;41.78;98278.59;5012783;28;19924;-80
2022/05/23 00:31:07;;;;;;;5.28;3.22;;;;;;;8.67;41.82;98282.16;5013333;28;20041;-79
2022/05/23 00:36:17;;;;;;;5.68;3.28;;;;;;;8.85;41.33;98268.88;5012032;28;20052;-79
2022/05/23 00:38:43;;;;;;;;;;;;;;;9.06;40.35;98287.44;5012825;28;20038;-79
2022/05/23 00:44:11;;;;;;;6.80;3.13;;;;;;;8.75;41.75;98280.28;5013475;28;20033;-80
2022/05/23 00:46:48;;;;;;;;;;;;;;;8.89;41.00;98290.38;5013124;28;20088;-80
2022/05/23 00:49:13;;;;;;;6.68;3.55;;;;;;;8.73;41.69;98281.19;5012097;28;19928;-80
2022/05/23 00:51:39;;;;;;;7.40;3.38;;;;;;;8.31;42.93;98288.78;5012344;28;20029;-79
2022/05/23 00:54:05;;;;;;;;;;;;;;;8.67;41.79;98296.81;4994124;28;20500;-79
2022/05/23 00:56:41;;;;;;;9.05;3.25;;;;;;;8.72;41.54;98279.47;5012473;28;20316;-80
2022/05/23 00:59:07;;;;;;;;;;;;;;;9.12;40.21;98295.94;4988191;28;20042;-79
2022/05/23 01:01:34;;;;;;;7.18;3.50;;;;;;;8.98;41.27;98290.19;5028213;28;20027;-80
2022/05/23 01:04:00;;;;;;;6.07;3.65;;;;;;;8.76;41.49;98288.88;4984876;28;20556;-79
2022/05/23 01:06:29;;;;;;;5.53;3.10;;;;;;;8.60;42.30;98306.41;4980122;28;20041;-79
2022/05/23 01:08:55;;;;;;;8.15;3.40;;;;;;;8.60;42.01;98291.72;5007650;28;20046;-80
2022/05/23 01:11:21;;;;;;;7.95;3.50;;;;;;;8.44;42.76;98300.66;4986340;28;20128;-80
2022/05/23 01:13:47;;;;;;;6.65;3.50;;;;;;;8.62;42.33;98308.09;5012162;28;20050;-80
2022/05/23 01:16:14;;;;;;;5.72;3.50;;;;;;;8.50;42.24;98316.06;5028322;28;20056;-80
2022/05/23 01:18:45;;;;;;;6.90;3.60;;;;;;;8.56;42.29;98310.75;5022907;28;20073;-80
2022/05/23 01:21:15;;;;;;;7.82;3.38;;;;;;;8.63;41.99;98314.97;4979421;28;20444;-79
2022/05/23 01:23:46;;;;;;;7.70;3.70;;;;;;;8.61;41.98;98314.16;4988795;28;20449;-79
2022/05/23 01:26:23;;;;;;;8.13;4.18;;;;;;;8.55;42.52;98316.81;4990673;28;20456;-79
2022/05/23 01:28:54;;;;;;;8.82;3.95;;;;;;;8.25;42.85;98294.91;5028095;28;20042;-79
2022/05/23 01:31:39;;;;;;;6.03;3.88;;;;;;;8.29;42.78;98312.09;5000566;28;20042;-79
2022/05/23 01:34:14;;;;;;;;;;;;;;;8.73;41.78;98317.38;4992421;28;20038;-79
2022/05/23 01:36:50;;;;;;;9.48;3.97;;;;;;;8.71;41.98;98311.41;4994246;28;20299;-78
2022/05/23 01:39:16;;;;;;;;;;;;;;;8.72;41.84;98318.25;4996138;28;20038;-79
2022/05/23 01:41:42;;;;;;;9.95;4.63;;;;;;;8.74;42.31;98311.31;5013236;28;19963;-79
2022/05/23 01:44:09;;;;;;;8.63;4.47;;;;;;;8.76;41.99;98301.81;5022523;28;20552;-80
2022/05/23 01:46:38;;;;;;;6.85;3.80;;;;;;;8.90;41.87;98313.59;4983482;28;20172;-79
2022/05/23 01:49:18;;;;;;;7.88;4.07;;;;;;;8.50;42.38;98299.69;5000588;28;20091;-80
2022/05/23 01:51:44;;;;;;;7.20;3.78;;;;;;;8.56;42.29;98305.59;5015514;28;20041;-79
2022/05/23 01:54:14;;;;;;;7.43;3.85;;;;;;;8.59;42.69;98310.72;5016174;28;20069;-80
2022/05/23 01:56:41;;;;;;;6.80;3.97;;;;;;;8.52;42.73;98311.72;5006487;28;20038;-80
2022/05/23 02:01:57;;;;;;;9.45;4.18;;;;;;;8.36;42.98;98303.38;5023307;28;20049;-80
2022/05/23 02:04:37;;;;;;;7.00;3.75;;;;;;;8.27;43.26;98300.91;4999340;28;20045;-80
2022/05/23 02:07:04;;;;;;;6.97;3.80;;;;;;;8.28;43.14;98315.50;5006119;28;20034;-80
2022/05/23 02:09:35;;;;;;;7.63;3.50;;;;;;;8.33;43.39;98328.38;5016291;28;20034;-79
2022/05/23 02:12:21;;;;;;;6.10;3.95;;;;;;;8.25;43.61;98327.66;5014883;28;20049;-79
2022/05/23 02:14:49;;;;;;;7.90;3.80;;;;;;;8.05;43.43;98313.31;4981143;28;20053;-80
2022/05/23 02:17:35;;;;;;;7.03;3.92;;;;;;;8.25;43.32;98323.34;4991814;28;20069;-80
2022/05/23 02:20:02;;;;;;;5.90;3.80;;;;;;;8.22;43.27;98320.78;4994427;28;20453;-80
2022/05/23 02:22:28;;;;;;;8.75;3.95;;;;;;;8.15;43.83;98327.81;5015199;28;20045;-80
2022/05/23 02:25:09;;;;;;;8.18;3.60;;;;;;;8.13;43.55;98323.53;5017083;28;20072;-81
2022/05/23 02:27:34;;;;;;;;;;;;;;;8.36;42.84;98338.66;4995651;28;20134;-81
2022/05/23 02:30:00;;;;;;;6.93;3.75;;;;;;;8.30;43.34;98336.19;4995373;28;20439;-81
2022/05/23 02:32:28;;;;;;;8.00;3.80;;;;;;;8.23;42.89;98326.81;4998566;28;20048;-80
2022/05/23 02:34:56;;;;;;;7.43;3.70;;;;;;;8.05;43.77;98333.97;4998816;28;20112;-79
2022/05/23 02:37:22;;;;;;;7.40;3.60;;;;;;;7.99;44.03;98328.91;4994925;28;20046;-80
2022/05/23 02:39:52;;;;;;;8.15;3.53;;;;;;;8.01;43.95;98332.31;4995025;28;20046;-80
2022/05/23 02:42:19;;;;;;;6.97;3.63;;;;;;;8.05;43.48;98344.28;5026300;28;20041;-80
2022/05/23 02:44:46;;;;;;;9.70;3.75;;;;;;;8.08;43.84;98349.41;5014456;28;20083;-81
2022/05/23 02:47:18;;;;;;;5.55;3.10;;;;;;;8.29;43.09;98337.03;5015553;28;20045;-80
2022/05/23 02:49:47;;;;;;;8.25;3.20;;;;;;;8.49;42.97;98342.78;4998890;28;20045;-81
2022/05/23 02:52:22;;;;;;;7.13;3.33;;;;;;;8.52;42.89;98350.50;4999899;28;20485;-80
2022/05/23 02:55:15;;;;;;;6.40;3.80;;;;;;;8.63;42.67;98345.13;5014353;28;20050;-81
2022/05/23 02:57:41;;;;;;;8.43;3.85;;;;;;;8.72;42.90;98349.28;4984436;28;20504;-80
2022/05/23 03:00:21;;;;;;;8.65;3.40;;;;;;;8.99;42.52;98353.13;4999842;28;20056;-81
2022/05/23 03:03:03;;;;;;;7.95;3.42;;;;;;;9.17;42.22;98365.69;5014946;28;20049;-80
2022/05/23 03:05:51;;;;;;;9.52;3.35;;;;;;;9.23;42.19;98360.38;5010872;28;20061;-80
2022/05/23 03:08:17;;;;;;;;;;;;;;;9.28;41.22;98365.47;4993052;28;20053;-79
2022/05/23 03:10:43;;;;;;;6.75;3.20;;;;;;;8.93;42.17;98358.38;5014095;28;19936;-80
2022/05/23 03:13:10;;;;;;;7.72;3.60;;;;;;;8.84;42.65;98377.50;5009575;28;20042;-79
2022/05/23 03:15:36;;;;;;;5.43;3.25;;;;;;;8.52;42.95;98365.13;4986139;28;20041;-80
2022/05/23 03:18:02;;;;;;;;;;;;;;;8.76;42.04;98375.06;4997564;28;20049;-80
2022/05/23 03:20:29;;;;;;;5.68;3.17;;;;;;;8.66;42.95;98373.53;5014454;28;19913;-80
2022/05/23 03:28:25;;;;;;;8.48;3.28;;;;;;;8.69;42.77;98377.78;5001027;28;20042;-79
2022/05/23 03:30:51;;;;;;;5.68;2.90;;;;;;;8.81;42.66;98393.94;5013364;28;20038;-80
2022/05/23 03:33:20;;;;;;;7.57;3.00;;;;;;;8.80;42.43;98379.31;5016175;28;20046;-85
2022/05/23 03:35:47;;;;;;;6.20;3.47;;;;;;;8.81;41.89;98370.66;5015123;28;20040;-80
2022/05/23 03:38:13;;;;;;;4.95;3.03;;;;;;;9.05;41.66;98387.47;5010602;28;20523;-80
2022/05/23 03:40:39;;;;;;;7.07;3.20;;;;;;;9.02;41.75;98379.75;5014489;28;20539;-79
2022/05/23 03:43:06;;;;;;;6.35;3.10;;;;;;;9.13;41.09;98379.56;5014072;28;20077;-80
2022/05/23 03:45:33;;;;;;;7.63;3.65;;;;;;;9.06;41.63;98389.16;5014052;28;20153;-81
2022/05/23 03:48:01;;;;;;;6.93;3.30;;;;;;;9.15;41.41;98389.00;5014569;28;20044;-79
2022/05/23 03:50:28;;;;;;;6.68;3.53;;;;;;;9.06;41.27;98389.16;4993191;28;20045;-82
2022/05/23 03:52:58;;;;;;;7.88;3.13;;;;;;;9.01;41.33;98384.97;5013411;28;20045;-79
2022/05/23 03:55:28;;;;;;;7.25;3.83;;;;;;;9.22;40.76;98384.56;5020583;28;20038;-78
2022/05/23 03:58:17;;;;;;;3.92;2.67;;;;;;;9.36;40.46;98369.63;4994617;28;20575;-80
2022/05/23 04:01:14;;;;;;;5.32;3.05;;;;;;;9.53;39.88;98381.34;5005902;28;20041;-80
2022/05/23 04:03:42;;;;;;;4.40;2.55;;;;;;;9.60;39.31;98372.59;4984964;28;20037;-79
2022/05/23 04:06:07;;;;;;;;;;;;;;;9.89;39.20;98378.00;4997232;28;20096;-79
2022/05/23 04:08:37;;;;;;;5.10;2.40;;;;;;;9.97;38.32;98382.16;5013117;28;19967;-78
2022/05/23 04:11:06;;;;;;;4.85;2.90;;;;;;;9.97;38.48;98376.97;4995323;28;20034;-79
2022/05/23 04:13:32;;;;;;;4.43;2.40;;;;;;;9.80;38.15;98366.97;4999186;28;20447;-79
2022/05/23 04:15:58;;;;;;;;;;;;;;;10.06;38.71;98379.38;4993677;28;20041;-79
2022/05/23 04:18:25;;;;;;;3.80;2.30;;;;;;;9.95;37.94;98379.63;4996266;28;19917;-78
2022/05/23 04:20:51;;;;;;;5.68;2.38;;;;;;;10.05;37.79;98378.53;5019934;28;20030;-79
2022/05/23 04:23:23;;;;;;;4.75;2.47;;;;;;;9.82;38.00;98370.41;4995691;28;20042;-79
2022/05/23 04:25:49;;;;;;;;;;;;;;;10.02;38.07;98380.31;5013088;28;20382;-79
2022/05/23 04:28:16;;;;;;;6.45;2.42;;;;;;;10.03;38.04;98372.50;5012730;28;19917;-81
2022/05/23 04:30:44;;;;;;;4.13;2.35;;;;;;;9.92;37.67;98377.09;4990357;28;20191;-79
2022/05/23 04:35:55;;;;;;;2.97;2.00;;;;;;;9.77;37.88;98392.97;5009332;28;19917;-79
2022/05/23 04:38:25;;;;;;;5.50;2.35;;;;;;;9.71;37.75;98380.13;5006754;28;20077;-78
2022/05/23 04:40:52;;;;;;;6.65;1.98;;;;;;;9.88;37.12;98375.44;4969796;28;20038;-79
2022/05/23 04:43:18;;;;;;;;;;;;;;;10.25;36.86;98400.56;5012924;28;20056;-79
2022/05/23 04:45:47;;;;;;;3.35;1.60;;;;;;;10.15;36.14;98380.00;5011967;28;19936;-79
2022/05/23 04:51:21;;;;;;;3.13;1.70;;;;;;;10.38;35.60;98378.66;4999402;28;20453;-80
2022/05/23 04:53:53;;;;;;;4.95;1.90;;;;;;;10.40;35.22;98382.06;4997040;28;20404;-79
2022/05/23 04:56:25;;;;;;;4.00;2.05;;;;;;;10.17;35.77;98367.88;5021245;28;20042;-79
2022/05/23 04:59:01;;;;;;;4.90;1.50;;;;;;;10.41;35.44;98387.22;4991257;28;20133;-84
2022/05/23 05:01:26;;;;;;;;;;;;;;;10.55;35.43;98378.25;5016784;28;20221;-79
2022/05/23 05:03:53;;;;;;;2.60;1.30;;;;;;;10.43;35.49;98366.44;5012558;28;19914;-80
2022/05/23 05:06:22;;;;;;;;;;;;;;;10.53;35.16;98388.66;4994434;28;20092;-80
2022/05/23 05:08:48;;;;;;;4.78;1.70;;;;;;;10.52;34.70;98378.31;4985172;28;20000;-79
2022/05/23 05:11:14;;;;;;;6.45;1.70;;;;;;;10.47;34.85;98381.03;4981557;28;20057;-79
2022/05/23 05:13:49;;;;;;;3.97;1.60;;;;;;;10.51;35.24;98385.25;5012777;28;20029;-80
2022/05/23 05:16:19;;;;;;;;;;;;;;;10.59;35.15;98380.75;4996626;28;20068;-79
2022/05/23 05:18:45;;;;;;;5.45;2.30;;;;;;;10.56;34.86;98386.00;5013121;28;19921;-79
2022/05/23 05:21:40;;;;;;;4.63;1.80;;;;;;;10.62;34.58;98382.38;5007845;28;20034;-78
2022/05/23 05:24:35;;;;;;;3.42;2.00;;;;;;;10.60;34.68;98369.47;4989914;28;20054;-81
2022/05/23 05:27:15;;;;;;;3.13;1.60;;;;;;;10.64;34.72;98391.84;4989887;28;20073;-79
2022/05/23 05:29:41;;;;;;;;;;;;;;;10.69;35.42;98387.41;4984336;28;20080;-79
2022/05/23 05:32:23;;;;;;;4.65;1.60;;;;;;;10.53;35.47;98375.69;5014129;28;19929;-80
2022/05/23 05:34:51;;;;;;;3.60;1.60;;;;;;;10.57;35.56;98390.28;5011359;28;20080;-80
2022/05/23 05:37:23;;;;;;;2.78;1.48;;;;;;;10.54;35.91;98380.00;4964800;28;20089;-79
2022/05/23 05:39:50;;;;;;;3.95;1.58;;;;;;;10.53;35.18;98386.06;5000520;28;20408;-78
2022/05/23 05:42:18;;;;;;;;;;;;;;;10.74;34.84;98384.69;4997060;28;20038;-79
2022/05/23 05:44:47;;;;;;;3.92;1.90;;;;;;;10.57;35.72;98386.84;4999012;28;20013;-79
2022/05/23 05:47:14;;;;;;;5.10;1.65;;;;;;;10.57;35.23;98390.28;5016822;28;20076;-79
2022/05/23 05:49:41;;;;;;;4.75;1.92;;;;;;;10.51;35.75;98374.88;5033687;28;20038;-79
2022/05/23 05:52:13;;;;;;;3.90;1.90;;;;;;;10.42;35.79;98375.09;5017579;28;20033;-79
2022/05/23 05:54:54;;;;;;;6.07;2.00;;;;;;;10.29;36.07;98384.06;5007527;28;20160;-79
2022/05/23 05:57:20;;;;;;;;;;;;;;;10.63;35.75;98392.75;5013441;28;20516;-79
2022/05/23 05:59:49;;;;;;;5.15;2.22;;;;;;;10.78;35.18;98390.66;4999974;28;20012;-80
2022/05/23 06:02:16;;;;;;;5.95;1.92;;;;;;;10.86;35.31;98386.13;5021390;28;20050;-81
2022/05/23 06:04:42;;;;;;;;;;;;;;;11.08;35.17;98387.25;5009430;28;20062;-79
2022/05/23 06:12:57;;;;;;;3.65;2.17;;;;;;;11.22;34.44;98386.88;5000411;28;20081;-81
2022/05/23 06:15:43;;;;;;;4.90;2.80;;;;;;;11.13;34.54;98388.00;5032737;28;20555;-79
2022/05/23 06:18:11;;;;;;;6.28;2.70;;;;;;;10.91;35.35;98379.06;5033038;28;20041;-80
2022/05/23 06:20:38;;;;;;;4.45;2.50;;;;;;;11.01;34.76;98390.91;5007993;28;20026;-80
2022/05/23 06:23:04;;;;;;;;;;;;;;;11.39;34.70;98383.84;4999389;28;20584;-79
2022/05/23 06:25:32;;;;;;;4.40;2.80;;;;;;;11.39;33.66;98363.06;5009947;28;20006;-80
2022/05/23 06:28:02;;;;;;;5.47;3.05;;;;;;;11.68;33.57;98375.19;4994100;28;20096;-79
2022/05/23 06:30:28;;;;;;;5.90;3.10;;;;;;;11.76;33.08;98364.59;5017611;28;20049;-79
2022/05/23 06:32:54;;;;;;;;;;;;;;;12.03;33.60;98371.59;5000055;28;20038;-80
2022/05/23 06:35:42;;;;;;;;;;;;;;;12.27;33.23;98374.31;5005369;28;19979;-79
2022/05/23 06:38:08;;;;;;;5.88;2.85;;;;;;;12.22;32.71;98366.66;5033242;28;20383;-78
2022/05/23 06:40:53;;;;;;;5.13;2.97;;;;;;;12.37;32.32;98361.00;5017638;28;20507;-80
2022/05/23 06:43:29;;;;;;;4.55;2.20;;;;;;;12.61;32.03;98374.97;4988430;28;20102;-83
2022/05/23 06:45:55;;;;;;;6.28;2.70;;;;;;;12.93;31.39;98371.28;4983108;28;20108;-80
2022/05/23 06:48:49;;;;;;;4.43;2.70;;;;;;;12.94;30.45;98348.69;4992965;28;20045;-80
2022/05/23 06:51:30;;;;;;;4.00;2.80;;;;;;;13.19;30.69;98351.28;5001040;28;20504;-80
2022/05/23 06:53:57;;;;;;;;;;;;;;;13.55;31.11;98367.38;5015904;28;20096;-79
2022/05/23 06:56:35;;;;;;;6.80;2.92;;;;;;;13.72;29.97;98357.19;5015109;28;19914;-79
2022/05/23 06:59:02;;;;;;;5.07;2.58;;;;;;;13.83;29.32;98356.75;5015195;28;20045;-80
2022/05/23 07:01:33;;;;;;;6.70;2.80;;;;;;;13.98;29.16;98352.75;5009970;28;20081;-79
2022/05/23 07:04:25;;;;;;;5.43;2.70;;;;;;;14.00;28.69;98348.28;5014359;28;20104;-80
2022/05/23 07:12:45;;;;;;;3.45;2.20;;;;;;;14.31;29.20;98349.72;4997691;28;20042;-80
2022/05/23 07:15:13;;;;;;;4.05;2.20;;;;;;;14.40;27.94;98349.34;4981620;28;20042;-80
2022/05/23 07:17:41;;;;;;;3.72;2.25;;;;;;;14.39;27.99;98345.03;4996090;28;20034;-82
2022/05/23 07:20:16;;;;;;;5.00;2.25;;;;;;;14.67;27.90;98343.00;5000946;28;20056;-79
2022/05/23 07:22:56;;;;;;;3.88;2.15;;;;;;;14.93;27.50;98343.66;4998913;28;20571;-80
2022/05/23 07:25:24;;;;;;;4.80;2.40;;;;;;;14.99;27.42;98349.50;5015039;28;20060;-80
2022/05/23 07:27:50;;;;;;;4.40;1.90;;;;;;;15.25;27.07;98342.25;4979611;28;20034;-80
2022/05/23 07:30:19;;;;;;;3.58;2.10;;;;;;;15.33;26.76;98336.72;4979744;28;20416;-79
2022/05/23 07:32:49;;;;;;;7.18;4.38;;;;;;;15.35;26.81;98335.75;5015089;28;20087;-80
2022/05/23 07:35:28;;;;;;;4.88;2.47;;;;;;;15.70;26.87;98347.22;4995278;28;20037;-81
2022/05/23 07:37:58;;;;;;;5.38;2.13;;;;;;;15.62;26.67;98324.94;5015762;28;20045;-80
2022/05/23 07:40:25;;;;;;;;;;;;;;;15.93;27.07;98345.31;5001821;28;20038;-81
2022/05/23 07:43:03;;;;;;;3.78;1.92;;;;;;;15.98;26.34;98340.72;5013958;28;19913;-81
2022/05/23 07:45:29;;;;;;;3.22;1.92;;;;;;;16.11;25.80;98335.75;5016045;28;20513;-81
2022/05/23 07:47:56;;;;;;;4.85;1.90;;;;;;;16.29;25.48;98336.66;5006248;28;20042;-80
2022/05/23 07:50:28;;;;;;;3.13;1.88;;;;;;;16.24;25.21;98324.63;4993551;28;20052;-80
2022/05/23 08:01:21;;;;;;;3.25;1.80;;;;;;;17.02;24.55;98325.16;5014573;28;20042;-82
2022/05/23 08:03:56;;;;;;;3.90;1.80;;;;;;;17.36;23.90;98331.25;5015700;28;20061;-80
2022/05/23 08:06:28;;;;;;;2.90;1.55;;;;;;;17.30;23.98;98331.56;4999397;28;20065;-79
2022/05/23 08:08:54;;;;;;;4.72;2.05;;;;;;;17.30;23.72;98337.66;5013657;28;20042;-80
2022/05/23 08:11:21;;;;;;;3.60;2.05;;;;;;;17.20;23.74;98329.44;5016921;28;20084;-81
2022/05/23 08:14:23;;;;;;;4.93;1.60;;;;;;;17.29;23.87;98322.88;5008046;28;20070;-81
2022/05/23 08:17:00;;;;;;;2.80;1.73;;;;;;;17.41;23.90;98321.34;4999345;28;20044;-81
2022/05/23 08:19:32;;;;;;;4.22;1.90;;;;;;;17.64;23.77;98326.25;5029620;28;20436;-83
2022/05/23 08:22:09;;;;;;;3.92;2.03;;;;;;;17.91;23.34;98317.78;5016714;28;20124;-79
2022/05/23 08:24:41;;;;;;;3.15;1.70;;;;;;;18.12;23.13;98314.00;5029817;28;20107;-80
2022/05/23 08:27:07;;;;;;;3.55;2.10;;;;;;;18.11;22.84;98300.97;5029540;28;20460;-81
2022/05/23 08:29:42;;;;;;;3.75;1.92;;;;;;;18.28;22.91;98295.59;5000646;28;20030;-80
2022/05/23 08:32:10;;;;;;;3.50;2.00;;;;;;;18.58;22.68;98300.84;4996920;28;20049;-80
2022/05/23 08:34:41;;;;;;;3.78;1.85;;;;;;;18.62;22.39;98304.16;4994215;28;20509;-79
2022/05/23 08:37:08;;;;;;;3.33;1.58;;;;;;;18.67;22.41;98310.81;4993058;28;20042;-80
2022/05/23 08:39:34;;;;;;;2.72;1.50;;;;;;;18.54;22.08;98299.34;4985644;28;20034;-81
2022/05/23 08:42:28;;;;;;;2.65;1.70;;;;;;;18.87;22.93;98311.44;4996881;28;20071;-81
2022/05/23 08:45:13;;;;;;;4.40;1.70;;;;;;;19.22;21.84;98306.72;5028857;28;20069;-80
2022/05/23 08:47:58;;;;;;;4.03;1.85;;;;;;;19.57;21.58;98311.59;5006617;28;20451;-81
2022/05/23 08:50:55;;;;;;;5.07;2.00;;;;;;;19.83;22.08;98312.59;4995725;28;20093;-80
2022/05/23 08:53:36;;;;;;;3.00;1.67;;;;;;;20.18;20.83;98286.66;5012102;28;20087;-81
2022/05/23 08:56:32;;;;;;;4.05;1.65;;;;;;;20.51;20.91;98302.91;5013141;28;20088;-81
2022/05/23 08:59:20;;;;;;;3.13;1.80;;;;;;;20.77;20.89;98305.59;5029390;28;20458;-82
2022/05/23 09:01:48;;;;;;;3.95;1.63;;;;;;;20.90;20.37;98305.63;5005651;28;20559;-80
2022/05/23 09:04:48;;;;;;;3.45;1.90;;;;;;;21.11;19.70;98312.06;4990864;28;20088;-82
2022/05/23 09:07:25;;;;;;;3.25;2.00;;;;;;;21.35;20.02;98308.69;4993971;28;20045;-81
2022/05/23 09:09:51;;;;;;;3.47;1.60;;;;;;;21.57;19.48;98303.63;5013208;28;20040;-81
2022/05/23 09:12:17;;;;;;;7.97;1.70;;;;;;;21.79;19.22;98306.41;4999016;28;20117;-81
2022/05/23 09:14:44;;;;;;;3.47;1.75;;;;;;;22.04;19.04;98302.03;5011142;28;20057;-85
2022/05/23 09:17:18;;;;;;;3.13;1.63;;;;;;;22.09;18.85;98284.03;4996344;28;20512;-82
2022/05/23 09:20:02;;;;;;;5.70;1.90;;;;;;;22.43;18.91;98305.34;4981122;28;20042;-80
2022/05/23 09:22:45;;;;;;;3.30;1.70;;;;;;;22.82;18.73;98297.09;5015680;28;20049;-81
2022/05/23 09:25:16;;;;;;;2.58;1.60;;;;;;;23.29;18.32;98289.13;4993989;28;20038;-82
2022/05/23 09:28:00;;;;;;;3.67;1.80;;;;;;;23.75;18.24;98290.81;4976995;28;20061;-80
2022/05/23 09:30:27;;;;;;;4.32;2.55;;;;;;;23.93;17.39;98268.16;5007851;28;20046;-82
2022/05/23 09:33:01;;;;;;;3.95;2.88;;;;;;;24.40;16.94;98297.06;4985642;28;20504;-83
2022/05/23 09:35:29;;;;;;;2.90;2.10;;;;;;;24.79;16.46;98275.19;5010058;28;20051;-81
2022/05/23 09:38:17;;;;;;;4.55;1.77;;;;;;;25.14;16.91;98289.94;5004517;28;20038;-82
2022/05/23 09:41:02;;;;;;;3.08;1.83;;;;;;;25.49;15.66;98286.88;5000951;28;20061;-82
2022/05/23 09:47:44;;;;;;;2.92;1.77;;;;;;;26.19;15.44;98279.81;5014793;28;20050;-80
2022/05/23 09:49:17;;;;;;;4.22;1.90;;;;;;;26.50;14.97;98272.59;5002012;28;20108;-85
2022/05/23 09:51:58;;;;;;;2.47;1.45;;;;;;;26.84;15.07;98270.28;4997622;28;20037;-82
2022/05/23 09:54:48;;;;;;;3.65;1.45;;;;;;;26.94;14.55;98266.78;5015767;28;20061;-81
2022/05/23 09:57:25;;;;;;;5.82;1.95;;;;;;;26.79;14.61;98275.19;5015621;28;20038;-82
2022/05/23 09:59:55;;;;;;;3.45;1.70;;;;;;;26.71;15.07;98258.28;5015625;28;20040;-81
2022/05/23 10:02:30;;;;;;;3.53;1.80;;;;;;;27.02;14.74;98269.56;5001850;28;20404;-82
2022/05/23 10:04:56;;;;;;;3.80;1.85;;;;;;;26.98;14.37;98269.00;5001024;28;20451;-81
2022/05/23 10:07:28;;;;;;;3.58;1.80;;;;;;;26.90;14.70;98258.25;4993928;28;20037;-82
2022/05/23 10:09:56;;;;;;;3.20;1.45;;;;;;;27.06;14.45;98258.47;4998736;28;20101;-83
2022/05/23 10:12:33;;;;;;;5.20;1.75;;;;;;;27.10;14.34;98251.91;4979647;28;20033;-82
2022/05/23 10:15:23;;;;;;;9.55;1.70;;;;;;;27.11;14.53;98255.41;4998961;28;20088;-80
2022/05/23 10:18:00;;;;;;;3.83;2.17;;;;;;;27.17;14.67;98254.00;5014956;28;20068;-81
2022/05/23 10:20:40;;;;;;;4.20;1.80;;;;;;;26.46;14.46;98239.28;4981747;28;20085;-83
2022/05/23 10:23:39;;;;;;;3.42;1.63;;;;;;;26.35;14.82;98234.91;5016503;28;20038;-83
2022/05/23 10:26:19;;;;;;;3.38;1.73;;;;;;;25.88;15.67;98230.41;5032965;28;20083;-82
2022/05/23 10:28:58;;;;;;;4.10;2.03;;;;;;;25.87;15.77;98240.19;5002146;28;20041;-84
2022/05/23 10:31:30;;;;;;;2.80;1.98;;;;;;;25.42;16.10;98243.25;5002147;28;20038;-83
2022/05/23 10:34:33;;;;;;;6.00;1.60;;;;;;;26.06;16.01;98247.34;4993796;28;20092;-82
2022/05/23 10:37:05;;;;;;;6.32;1.80;;;;;;;26.17;15.66;98228.63;5032905;28;20496;-85
2022/05/23 10:42:36;;;;;;;3.97;1.50;;;;;;;26.83;14.75;98241.19;5020159;28;20042;-82
2022/05/23 10:45:04;;;;;;;2.60;1.25;;;;;;;27.00;14.95;98234.28;5016592;28;20062;-82
2022/05/23 10:47:39;;;;;;;2.95;1.63;;;;;;;27.16;14.79;98250.50;5033502;28;20134;-82
2022/05/23 10:50:19;;;;;;;2.80;1.70;;;;;;;27.33;14.77;98244.41;5034138;28;20034;-82
2022/05/23 10:52:51;;;;;;;3.60;1.40;;;;;;;27.52;14.68;98255.97;5001632;28;20056;-83
2022/05/23 10:55:20;;;;;;;3.22;1.83;;;;;;;27.46;14.05;98237.91;5020738;28;20049;-84
2022/05/23 10:57:59;;;;;;;5.32;1.30;;;;;;;27.65;14.67;98239.63;5002971;28;20506;-82
2022/05/23 11:00:34;;;;;;;4.10;1.58;;;;;;;27.72;14.08;98235.41;5021513;28;20068;-84
2022/05/23 11:03:18;;;;;;;;;;;;;;;27.88;14.85;98248.06;5039514;28;20041;-82
2022/05/23 11:06:03;;;;;;;6.53;1.90;;;;;;;27.84;14.28;98235.03;5041073;28;20413;-85
2022/05/23 11:08:29;;;;;;;2.58;1.60;;;;;;;27.89;14.15;98231.09;5042531;28;20439;-86
2022/05/23 11:11:18;;;;;;;2.63;1.38;;;;;;;28.02;14.13;98218.25;5045991;28;20029;-81
2022/05/23 11:13:58;;;;;;;3.47;1.30;;;;;;;28.49;13.99;98234.84;4996303;28;20050;-84
2022/05/23 11:17:21;;;;;;;3.63;1.60;;;;;;;29.00;13.90;98227.06;5016477;28;20067;-83
2022/05/23 11:20:09;;;;;;;2.45;1.40;;;;;;;28.92;13.50;98222.50;4943612;29;20046;-85
2022/05/23 11:22:38;;;;;;;3.17;1.40;;;;;;;27.84;13.26;98211.06;4946303;29;20066;-81
2022/05/23 11:25:26;;;;;;;3.28;1.40;;;;;;;27.24;13.90;98221.31;4965659;28;20067;-82
2022/05/23 11:33:54;;;;;;;4.78;1.50;;;;;;;28.64;13.03;98203.13;5007717;28;20137;-83
2022/05/23 11:36:32;;;;;;;3.42;1.30;;;;;;;28.98;13.35;98205.88;5003150;28;20037;-82
2022/05/23 11:38:58;;;;;;;3.85;1.20;;;;;;;28.96;13.08;98199.88;4989822;28;20037;-84
2022/05/23 11:41:29;;;;;;;1.95;1.30;;;;;;;29.19;13.45;98202.81;5019592;28;20370;-83
2022/05/23 11:43:55;;;;;;;4.05;1.20;;;;;;;29.37;12.78;98194.72;4989226;28;20551;-84
2022/05/23 11:46:26;;;;;;;4.97;1.40;;;;;;;29.53;12.93;98215.31;5004995;28;20149;-82
2022/05/23 11:48:58;;;;;;;2.78;1.20;;;;;;;29.95;12.54;98219.78;4985882;28;20057;-82
2022/05/23 11:51:36;;;;;;;1.63;1.15;;;;;;;30.06;12.31;98203.44;4999598;28;20034;-82
2022/05/23 11:54:08;;;;;;;1.65;1.08;;;;;;;30.51;11.95;98218.19;4989704;28;20069;-83
2022/05/23 11:56:40;;;;;;;4.13;1.20;;;;;;;30.18;12.14;98207.47;4982340;28;20060;-85
2022/05/23 11:59:10;;;;;;;4.53;1.13;;;;;;;30.39;11.83;98212.34;4997413;28;20046;-81
2022/05/23 12:01:36;;;;;;;2.20;1.38;;;;;;;30.70;12.01;98207.16;4996281;28;20034;-82
2022/05/23 12:04:02;;;;;;;3.55;1.20;;;;;;;30.81;11.48;98206.81;5002175;28;20029;-84
2022/05/23 12:06:28;;;;;;;4.35;1.30;;;;;;;30.83;11.74;98215.50;5021624;28;20048;-82
2022/05/23 12:09:02;;;;;;;7.05;1.20;;;;;;;30.34;11.96;98215.53;5031952;28;20034;-82
2022/05/23 12:11:28;;;;;;;2.38;1.08;;;;;;;30.50;12.02;98213.84;5017346;28;20157;-83
2022/05/23 12:13:58;;;;;;;5.35;1.20;;;;;;;30.55;11.93;98190.06;5020603;28;20088;-82
2022/05/23 12:16:30;;;;;;;2.75;1.55;;;;;;;30.90;11.85;98202.28;5002432;28;20188;-83
2022/05/23 12:19:06;;;;;;;5.10;1.90;;;;;;;30.99;12.07;98214.63;5032708;28;20163;-80
2022/05/23 12:21:35;;;;;;;4.20;1.45;;;;;;;30.92;11.27;98202.94;5019229;28;20038;-83
2022/05/23 12:24:23;;;;;;;3.55;1.35;;;;;;;31.11;11.94;98209.72;5020890;28;20037;-85
2022/05/23 12:26:57;;;;;;;2.95;1.20;;;;;;;31.21;11.31;98210.38;5041646;28;20044;-86
2022/05/23 12:29:25;;;;;;;3.13;1.10;;;;;;;31.10;11.41;98206.22;5001099;28;20033;-84
2022/05/23 12:32:16;;;;;;;4.00;1.20;;;;;;;30.91;11.68;98206.63;5014892;28;20045;-83
2022/05/23 12:34:47;;;;;;;1.52;0.98;;;;;;;30.68;12.14;98187.72;5034201;28;20042;-82
2022/05/23 12:37:36;;;;;;;3.28;1.27;;;;;;;30.99;11.87;98214.63;5021262;28;20065;-86
2022/05/23 12:40:13;;;;;;;5.50;1.30;;;;;;;31.14;11.38;98212.06;5023502;28;20105;-83
2022/05/23 12:43:01;;;;;;;8.45;1.50;;;;;;;31.24;11.66;98206.50;5000006;28;20508;-82
2022/05/23 12:45:48;;;;;;;3.92;1.20;;;;;;;31.37;11.72;98196.94;5013919;28;20101;-81
2022/05/23 12:48:26;;;;;;;4.65;1.35;;;;;;;31.14;11.34;98207.56;4998251;28;20038;-82
2022/05/23 12:51:06;;;;;;;4.18;1.25;;;;;;;30.98;11.35;98202.25;5000592;28;20061;-82
2022/05/23 12:54:16;;;;;;;2.15;1.25;;;;;;;31.10;11.62;98214.25;5023354;28;20038;-83
2022/05/23 12:56:42;;;;;;;4.03;1.10;;;;;;;31.13;11.01;98210.41;5003650;28;20057;-82
2022/05/23 12:59:15;;;;;;;4.00;1.10;;;;;;;30.93;10.96;98193.03;5015925;28;20055;-83
2022/05/23 13:01:43;;;;;;;1.83;1.10;;;;;;;30.77;10.77;98202.78;5018926;28;20045;-82
2022/05/23 13:04:22;;;;;;;1.95;1.00;;;;;;;30.85;11.29;98186.72;4980098;28;20045;-82